createdAt,value
2022-11-09T00:04:04.309Z,6.10
2022-11-09T00:09:08.444Z,6.10
2022-11-09T00:14:16.180Z,6.00
2022-11-09T00:19:19.775Z,6.00
2022-11-09T00:24:22.232Z,6.00
2022-11-09T00:29:24.661Z,6.20
2022-11-09T00:34:27.113Z,6.10
2022-11-09T00:39:29.860Z,6.30
2022-11-09T00:44:33.801Z,6.30
2022-11-09T00:49:36.252Z,6.30
2022-11-09T00:54:38.695Z,6.30
2022-11-09T00:59:41.130Z,6.20
2022-11-09T01:04:43.786Z,6.30
2022-11-09T01:09:46.272Z,6.30
2022-11-09T01:14:48.804Z,6.40
2022-11-09T01:19:51.880Z,6.40
2022-11-09T01:24:54.521Z,6.40
2022-11-09T01:29:59.711Z,6.50
2022-11-09T01:35:02.156Z,6.60
2022-11-09T01:40:07.073Z,6.60
2022-11-09T01:45:18.767Z,6.70
2022-11-09T01:50:33.624Z,6.70
2022-11-09T01:55:37.859Z,6.80
2022-11-09T02:00:44.489Z,6.80
2022-11-09T02:05:49.357Z,6.80
2022-11-09T02:11:00.543Z,6.90
2022-11-09T02:16:03.956Z,6.80
2022-11-09T02:21:07.312Z,6.70
2022-11-09T02:26:18.396Z,6.60
2022-11-09T02:31:22.670Z,6.60
2022-11-09T02:36:25.489Z,6.50
2022-11-09T02:41:30.541Z,6.40
2022-11-09T02:46:35.967Z,6.40
2022-11-09T02:51:38.837Z,6.40
2022-11-09T02:56:41.613Z,6.40
2022-11-09T03:01:44.717Z,6.30
2022-11-09T03:06:47.344Z,6.20
2022-11-09T03:11:53.202Z,6.20
2022-11-09T03:16:56.453Z,6.30
2022-11-09T03:21:59.034Z,6.40
2022-11-09T03:27:01.497Z,6.40
2022-11-09T03:32:05.931Z,6.60
2022-11-09T03:37:08.553Z,6.60
2022-11-09T03:42:11.090Z,6.60
2022-11-09T03:47:14.850Z,6.70
2022-11-09T03:52:17.330Z,6.80
2022-11-09T03:57:19.825Z,6.90
2022-11-09T04:02:22.331Z,7.00
2022-11-09T04:07:24.952Z,7.10
2022-11-09T04:12:27.406Z,7.10
2022-11-09T04:17:29.849Z,7.10
2022-11-09T04:22:32.356Z,7.10
2022-11-09T04:27:35.075Z,7.10
2022-11-09T04:32:37.520Z,6.90
2022-11-09T04:37:40.038Z,6.90
2022-11-09T04:42:42.544Z,6.70
2022-11-09T04:47:45.051Z,6.60
2022-11-09T04:52:47.489Z,6.60
2022-11-09T04:57:49.894Z,6.60
2022-11-09T05:02:52.381Z,6.60
2022-11-09T05:07:54.883Z,6.50
2022-11-09T05:12:59.042Z,6.40
2022-11-09T05:18:02.060Z,6.40
2022-11-09T05:23:23.883Z,6.40
2022-11-09T05:28:26.482Z,6.40
2022-11-09T05:33:29.129Z,6.40
2022-11-09T05:38:32.135Z,6.40
2022-11-09T05:43:34.511Z,6.30
2022-11-09T05:48:36.969Z,6.10
2022-11-09T05:53:43.717Z,6.20
2022-11-09T05:58:48.809Z,6.20
2022-11-09T06:03:54.106Z,6.00
2022-11-09T06:08:56.596Z,5.80
2022-11-09T06:13:59.040Z,5.80
2022-11-09T06:19:01.577Z,6.00
2022-11-09T06:24:04.177Z,6.00
2022-11-09T06:29:06.583Z,6.00
2022-11-09T06:34:09.275Z,6.20
2022-11-09T06:39:11.697Z,6.20
2022-11-09T06:44:14.142Z,6.20
2022-11-09T06:49:16.741Z,6.20
2022-11-09T06:54:19.197Z,6.30
2022-11-09T06:59:22.128Z,6.50
2022-11-09T07:04:27.887Z,7.10
2022-11-09T07:09:30.343Z,7.30
2022-11-09T07:14:32.881Z,7.20
2022-11-09T07:19:35.258Z,7.40
2022-11-09T07:24:37.995Z,9.40
2022-11-09T07:29:40.598Z,10.40
2022-11-09T07:34:43.058Z,10.20
2022-11-09T07:39:45.549Z,9.30
2022-11-09T07:44:47.963Z,8.70
2022-11-09T07:49:50.457Z,8.60
2022-11-09T07:54:52.898Z,8.60
2022-11-09T07:59:55.438Z,8.70
2022-11-09T08:04:57.835Z,8.80
2022-11-09T08:10:00.264Z,8.90
2022-11-09T08:15:03.077Z,9.10
2022-11-09T08:20:06.591Z,9.20
2022-11-09T08:25:09.786Z,9.40
2022-11-09T08:30:15.209Z,9.40
2022-11-09T08:35:20.610Z,9.50
2022-11-09T08:40:25.048Z,9.60
2022-11-09T08:45:27.423Z,9.70
2022-11-09T08:50:30.894Z,9.80
2022-11-09T08:55:33.540Z,10.00
2022-11-09T09:00:35.978Z,10.10
2022-11-09T09:05:38.570Z,10.30
2022-11-09T09:10:41.216Z,10.40
2022-11-09T09:15:43.784Z,10.60
2022-11-09T09:20:46.523Z,10.70
2022-11-09T09:25:49.419Z,10.60
2022-11-09T09:30:52.424Z,10.60
2022-11-09T09:35:58.387Z,10.70
2022-11-09T09:41:03.122Z,10.80
2022-11-09T09:46:13.909Z,11.00
2022-11-09T09:51:27.739Z,11.10
2022-11-09T09:56:37.252Z,11.20
2022-11-09T10:01:45.085Z,11.20
2022-11-09T10:07:03.880Z,11.20
2022-11-09T10:12:33.372Z,11.30
2022-11-09T10:17:54.733Z,11.30
2022-11-09T10:23:24.945Z,11.40
2022-11-09T10:28:37.963Z,11.60
2022-11-09T10:33:58.167Z,11.80
2022-11-09T10:39:01.871Z,12.30
2022-11-09T10:44:22.776Z,12.50
2022-11-09T10:49:44.185Z,12.60
2022-11-09T10:55:27.177Z,12.80
2022-11-09T11:01:06.842Z,13.60
2022-11-09T11:06:31.476Z,13.40
2022-11-09T11:12:15.023Z,14.00
2022-11-09T11:17:37.406Z,13.30
2022-11-09T11:23:13.704Z,13.30
2022-11-09T11:28:46.769Z,13.30
2022-11-09T11:34:31.978Z,13.20
2022-11-09T11:40:04.951Z,12.90
2022-11-09T11:45:41.687Z,12.80
2022-11-09T11:51:11.463Z,12.80
2022-11-09T11:56:38.446Z,12.90
2022-11-09T12:02:12.875Z,13.00
2022-11-09T12:07:45.888Z,13.10
2022-11-09T12:13:28.310Z,13.20
2022-11-09T12:19:11.916Z,13.20
2022-11-09T12:24:51.621Z,13.20
2022-11-09T12:30:17.934Z,13.10
2022-11-09T12:35:41.343Z,13.00
2022-11-09T12:41:09.163Z,13.00
2022-11-09T12:46:38.517Z,13.00
2022-11-09T12:51:59.579Z,13.00
2022-11-09T12:57:27.221Z,12.80
2022-11-09T13:02:57.709Z,12.80
2022-11-09T13:08:30.491Z,12.70
2022-11-09T13:13:51.370Z,12.60
2022-11-09T13:19:32.543Z,12.40
2022-11-09T13:24:59.906Z,12.30
2022-11-09T13:30:28.461Z,13.00
2022-11-09T13:35:49.332Z,12.40
2022-11-09T13:41:29.258Z,12.80
2022-11-09T13:46:50.143Z,12.10
2022-11-09T13:52:57.086Z,11.80
2022-11-09T13:58:45.122Z,11.60
2022-11-09T14:04:05.941Z,11.50
2022-11-09T14:09:27.749Z,11.50
2022-11-09T14:15:03.738Z,11.50
2022-11-09T14:20:48.090Z,11.50
2022-11-09T14:26:16.355Z,11.40
2022-11-09T14:31:45.529Z,11.50
2022-11-09T14:37:07.062Z,11.40
2022-11-09T14:42:29.078Z,11.40
2022-11-09T14:47:52.676Z,11.40
2022-11-09T14:53:22.485Z,11.40
2022-11-09T14:58:44.655Z,11.20
2022-11-09T15:04:20.115Z,11.20
2022-11-09T15:09:48.266Z,11.10
2022-11-09T15:15:24.360Z,11.10
2022-11-09T15:20:45.326Z,10.90
2022-11-09T15:26:06.507Z,10.90
2022-11-09T15:31:28.499Z,10.80
2022-11-09T15:36:54.852Z,10.70
2022-11-09T15:42:16.097Z,10.70
2022-11-09T15:47:38.612Z,11.40
2022-11-09T15:52:59.455Z,11.30
2022-11-09T15:58:20.461Z,10.60
2022-11-09T16:03:41.677Z,10.30
2022-11-09T16:09:02.709Z,10.30
2022-11-09T16:14:24.528Z,10.10
2022-11-09T16:19:45.400Z,10.00
2022-11-09T16:25:06.705Z,10.10
2022-11-09T16:30:27.717Z,10.00
2022-11-09T16:35:48.744Z,9.80
2022-11-09T16:41:10.942Z,9.70
2022-11-09T16:46:31.987Z,9.60
2022-11-09T16:51:52.951Z,9.60
2022-11-09T16:57:13.889Z,9.60
2022-11-09T17:02:35.213Z,9.80
2022-11-09T17:07:56.230Z,9.60
2022-11-09T17:13:17.090Z,9.50
2022-11-09T17:18:38.930Z,9.50
2022-11-09T17:24:00.573Z,9.60
2022-11-09T17:29:22.969Z,9.40
2022-11-09T17:34:43.816Z,9.10
2022-11-09T17:40:05.456Z,9.00
2022-11-09T17:45:26.729Z,8.80
2022-11-09T17:50:47.727Z,8.90
2022-11-09T17:56:10.099Z,8.80
2022-11-09T18:01:32.396Z,8.90
2022-11-09T18:06:56.398Z,8.60
2022-11-09T18:12:18.102Z,8.60
2022-11-09T18:17:39.024Z,8.20
2022-11-09T18:23:00.676Z,8.30
2022-11-09T18:28:22.370Z,8.10
2022-11-09T18:33:44.196Z,7.80
2022-11-09T18:39:05.623Z,8.00
2022-11-09T18:44:26.805Z,7.80
2022-11-09T18:49:47.949Z,7.50
2022-11-09T18:55:09.417Z,7.70
2022-11-09T19:00:30.744Z,7.40
2022-11-09T19:05:52.036Z,7.70
2022-11-09T19:11:14.126Z,7.60
2022-11-09T19:16:36.089Z,7.80
2022-11-09T19:21:57.464Z,8.20
2022-11-09T19:27:18.806Z,8.00
2022-11-09T19:32:39.695Z,8.00
2022-11-09T19:38:06.021Z,8.10
2022-11-09T19:43:27.179Z,8.00
2022-11-09T19:48:48.669Z,8.00
2022-11-09T19:54:21.796Z,8.00
2022-11-09T19:59:42.873Z,8.20
2022-11-09T20:05:04.247Z,8.20
2022-11-09T20:10:35.372Z,8.20
2022-11-09T20:16:06.135Z,8.20
2022-11-09T20:21:28.072Z,8.10
2022-11-09T20:26:49.929Z,8.80
2022-11-09T20:32:16.708Z,8.30
2022-11-09T20:37:43.087Z,8.30
2022-11-09T20:43:04.601Z,8.30
2022-11-09T20:48:52.115Z,8.10
2022-11-09T20:54:11.444Z,8.10
2022-11-09T20:59:35.632Z,8.10
2022-11-09T21:04:59.260Z,8.00
2022-11-09T21:10:21.077Z,7.80
2022-11-09T21:15:42.892Z,7.80
2022-11-09T21:21:18.066Z,7.70
2022-11-09T21:27:05.605Z,7.90
2022-11-09T21:32:35.141Z,7.90
2022-11-09T21:38:03.022Z,8.20
2022-11-09T21:43:24.598Z,8.00
2022-11-09T21:48:49.109Z,8.20
2022-11-09T21:54:11.344Z,7.90
2022-11-09T21:59:32.817Z,8.10
2022-11-09T22:05:02.957Z,8.00
2022-11-09T22:10:24.625Z,7.90
2022-11-09T22:16:07.336Z,8.20
2022-11-09T22:21:37.532Z,8.10
2022-11-09T22:27:08.096Z,8.40
2022-11-09T22:32:29.672Z,8.60
2022-11-09T22:43:12.154Z,9.50
2022-11-09T22:48:34.466Z,9.40
2022-11-09T22:53:55.186Z,9.00
2022-11-09T22:59:17.909Z,9.00
2022-11-09T23:04:39.020Z,8.90
2022-11-09T23:09:59.908Z,8.70
2022-11-09T23:15:21.167Z,8.90
2022-11-09T23:20:42.900Z,8.70
2022-11-09T23:26:05.236Z,8.80
2022-11-09T23:31:27.894Z,8.70
2022-11-09T23:36:48.841Z,9.00
2022-11-09T23:42:10.177Z,9.50
2022-11-09T23:47:31.005Z,10.70
2022-11-09T23:52:52.652Z,10.20
2022-11-09T23:58:13.737Z,9.80
